sensor_id;sensor_type;location;lat;lon;timestamp;pressure;altitude;pressure_sealevel;temperature
22828;BMP180;11580;52.562;13.418;2023-07-31T00:00:28;100246.00;;;20.30
22828;BMP180;11580;52.562;13.418;2023-07-31T00:02:57;100233.00;;;20.20
22828;BMP180;11580;52.562;13.418;2023-07-31T00:05:24;100237.00;;;20.20
22828;BMP180;11580;52.562;13.418;2023-07-31T00:07:51;100231.00;;;20.10
22828;BMP180;11580;52.562;13.418;2023-07-31T00:10:20;100234.00;;;20.10
22828;BMP180;11580;52.562;13.418;2023-07-31T00:12:47;100228.00;;;20.00
22828;BMP180;11580;52.562;13.418;2023-07-31T00:15:15;100225.00;;;20.00
22828;BMP180;11580;52.562;13.418;2023-07-31T00:17:42;100217.00;;;19.90
22828;BMP180;11580;52.562;13.418;2023-07-31T00:20:11;100212.00;;;19.80
22828;BMP180;11580;52.562;13.418;2023-07-31T00:22:38;100220.00;;;19.80
22828;BMP180;11580;52.562;13.418;2023-07-31T00:25:06;100209.00;;;19.70
22828;BMP180;11580;52.562;13.418;2023-07-31T00:27:33;100209.00;;;19.70
22828;BMP180;11580;52.562;13.418;2023-07-31T00:30:00;100213.00;;;19.60
22828;BMP180;11580;52.562;13.418;2023-07-31T00:32:28;100195.00;;;19.60
22828;BMP180;11580;52.562;13.418;2023-07-31T00:34:55;100200.00;;;19.60
22828;BMP180;11580;52.562;13.418;2023-07-31T00:37:24;100199.00;;;19.60
22828;BMP180;11580;52.562;13.418;2023-07-31T00:39:51;100191.00;;;19.60
22828;BMP180;11580;52.562;13.418;2023-07-31T00:42:18;100202.00;;;19.60
22828;BMP180;11580;52.562;13.418;2023-07-31T00:44:45;100193.00;;;19.60
22828;BMP180;11580;52.562;13.418;2023-07-31T00:47:12;100189.00;;;19.60
22828;BMP180;11580;52.562;13.418;2023-07-31T00:49:40;100193.00;;;19.60
22828;BMP180;11580;52.562;13.418;2023-07-31T00:52:08;100198.00;;;19.60
22828;BMP180;11580;52.562;13.418;2023-07-31T00:54:37;100190.00;;;19.70
22828;BMP180;11580;52.562;13.418;2023-07-31T00:57:06;100188.00;;;19.70
22828;BMP180;11580;52.562;13.418;2023-07-31T00:59:34;100183.00;;;19.70
22828;BMP180;11580;52.562;13.418;2023-07-31T01:02:03;100180.00;;;19.80
22828;BMP180;11580;52.562;13.418;2023-07-31T01:04:30;100185.00;;;19.80
22828;BMP180;11580;52.562;13.418;2023-07-31T01:07:08;100180.00;;;19.90
22828;BMP180;11580;52.562;13.418;2023-07-31T01:09:47;100190.00;;;19.90
22828;BMP180;11580;52.562;13.418;2023-07-31T01:12:16;100185.00;;;20.00
22828;BMP180;11580;52.562;13.418;2023-07-31T01:14:52;100180.00;;;20.10
22828;BMP180;11580;52.562;13.418;2023-07-31T01:17:19;100177.00;;;20.10
22828;BMP180;11580;52.562;13.418;2023-07-31T01:19:48;100175.00;;;20.20
22828;BMP180;11580;52.562;13.418;2023-07-31T01:22:33;100173.00;;;20.20
22828;BMP180;11580;52.562;13.418;2023-07-31T01:25:21;100171.00;;;20.30
22828;BMP180;11580;52.562;13.418;2023-07-31T01:28:02;100161.00;;;20.40
22828;BMP180;11580;52.562;13.418;2023-07-31T01:30:35;100176.00;;;20.40
22828;BMP180;11580;52.562;13.418;2023-07-31T01:33:05;100181.00;;;20.40
22828;BMP180;11580;52.562;13.418;2023-07-31T01:35:34;100182.00;;;20.50
22828;BMP180;11580;52.562;13.418;2023-07-31T01:38:02;100167.00;;;20.50
22828;BMP180;11580;52.562;13.418;2023-07-31T01:40:29;100181.00;;;20.60
22828;BMP180;11580;52.562;13.418;2023-07-31T01:42:58;100189.00;;;20.60
22828;BMP180;11580;52.562;13.418;2023-07-31T01:45:25;100185.00;;;20.60
22828;BMP180;11580;52.562;13.418;2023-07-31T01:47:52;100177.00;;;20.60
22828;BMP180;11580;52.562;13.418;2023-07-31T01:50:19;100171.00;;;20.70
22828;BMP180;11580;52.562;13.418;2023-07-31T01:52:46;100178.00;;;20.70
22828;BMP180;11580;52.562;13.418;2023-07-31T01:55:14;100171.00;;;20.70
22828;BMP180;11580;52.562;13.418;2023-07-31T01:57:41;100160.00;;;20.70
22828;BMP180;11580;52.562;13.418;2023-07-31T02:00:11;100156.00;;;20.80
22828;BMP180;11580;52.562;13.418;2023-07-31T02:02:38;100160.00;;;20.70
22828;BMP180;11580;52.562;13.418;2023-07-31T02:05:06;100155.00;;;20.80
22828;BMP180;11580;52.562;13.418;2023-07-31T02:07:33;100154.00;;;20.80
22828;BMP180;11580;52.562;13.418;2023-07-31T02:10:00;100153.00;;;20.80
22828;BMP180;11580;52.562;13.418;2023-07-31T02:12:27;100151.00;;;20.80
22828;BMP180;11580;52.562;13.418;2023-07-31T02:14:56;100142.00;;;20.80
22828;BMP180;11580;52.562;13.418;2023-07-31T02:17:26;100145.00;;;20.80
22828;BMP180;11580;52.562;13.418;2023-07-31T02:19:53;100149.00;;;20.80
22828;BMP180;11580;52.562;13.418;2023-07-31T02:22:20;100144.00;;;20.80
22828;BMP180;11580;52.562;13.418;2023-07-31T02:24:47;100140.00;;;20.80
22828;BMP180;11580;52.562;13.418;2023-07-31T02:27:15;100127.00;;;20.80
22828;BMP180;11580;52.562;13.418;2023-07-31T02:29:42;100130.00;;;20.90
22828;BMP180;11580;52.562;13.418;2023-07-31T02:32:09;100138.00;;;20.80
22828;BMP180;11580;52.562;13.418;2023-07-31T02:34:38;100138.00;;;20.90
22828;BMP180;11580;52.562;13.418;2023-07-31T02:37:05;100140.00;;;20.90
22828;BMP180;11580;52.562;13.418;2023-07-31T02:39:32;100138.00;;;20.90
22828;BMP180;11580;52.562;13.418;2023-07-31T02:42:00;100136.00;;;20.90
22828;BMP180;11580;52.562;13.418;2023-07-31T02:44:27;100129.00;;;20.90
22828;BMP180;11580;52.562;13.418;2023-07-31T02:46:54;100127.00;;;20.90
22828;BMP180;11580;52.562;13.418;2023-07-31T02:49:21;100124.00;;;20.90
22828;BMP180;11580;52.562;13.418;2023-07-31T02:51:50;100121.00;;;20.90
22828;BMP180;11580;52.562;13.418;2023-07-31T02:54:17;100121.00;;;20.90
22828;BMP180;11580;52.562;13.418;2023-07-31T02:56:46;100119.00;;;20.90
22828;BMP180;11580;52.562;13.418;2023-07-31T02:59:14;100121.00;;;20.90
22828;BMP180;11580;52.562;13.418;2023-07-31T03:01:41;100118.00;;;20.90
22828;BMP180;11580;52.562;13.418;2023-07-31T03:04:09;100119.00;;;20.90
22828;BMP180;11580;52.562;13.418;2023-07-31T03:06:36;100117.00;;;20.90
22828;BMP180;11580;52.562;13.418;2023-07-31T03:09:04;100120.00;;;20.90
22828;BMP180;11580;52.562;13.418;2023-07-31T03:11:32;100114.00;;;20.90
22828;BMP180;11580;52.562;13.418;2023-07-31T03:13:59;100109.00;;;20.90
22828;BMP180;11580;52.562;13.418;2023-07-31T03:16:26;100112.00;;;20.90
22828;BMP180;11580;52.562;13.418;2023-07-31T03:18:54;100109.00;;;20.90
22828;BMP180;11580;52.562;13.418;2023-07-31T03:21:21;100109.00;;;20.90
22828;BMP180;11580;52.562;13.418;2023-07-31T03:23:48;100111.00;;;20.90
22828;BMP180;11580;52.562;13.418;2023-07-31T03:26:17;100108.00;;;20.90
22828;BMP180;11580;52.562;13.418;2023-07-31T03:28:44;100102.00;;;20.90
22828;BMP180;11580;52.562;13.418;2023-07-31T03:31:11;100105.00;;;20.90
22828;BMP180;11580;52.562;13.418;2023-07-31T03:33:39;100093.00;;;20.90
22828;BMP180;11580;52.562;13.418;2023-07-31T03:36:06;100096.00;;;20.90
22828;BMP180;11580;52.562;13.418;2023-07-31T03:38:34;100096.00;;;20.90
22828;BMP180;11580;52.562;13.418;2023-07-31T03:41:01;100090.00;;;20.90
22828;BMP180;11580;52.562;13.418;2023-07-31T03:43:29;100090.00;;;20.90
22828;BMP180;11580;52.562;13.418;2023-07-31T03:45:57;100087.00;;;20.90
22828;BMP180;11580;52.562;13.418;2023-07-31T03:48:24;100083.00;;;20.90
22828;BMP180;11580;52.562;13.418;2023-07-31T03:50:52;100061.00;;;20.90
22828;BMP180;11580;52.562;13.418;2023-07-31T03:53:19;100079.00;;;20.90
22828;BMP180;11580;52.562;13.418;2023-07-31T03:55:46;100077.00;;;21.00
22828;BMP180;11580;52.562;13.418;2023-07-31T03:58:13;100078.00;;;21.00
22828;BMP180;11580;52.562;13.418;2023-07-31T04:00:42;100081.00;;;20.90
22828;BMP180;11580;52.562;13.418;2023-07-31T04:03:09;100085.00;;;21.00
22828;BMP180;11580;52.562;13.418;2023-07-31T04:05:38;100079.00;;;21.00
22828;BMP180;11580;52.562;13.418;2023-07-31T04:08:06;100067.00;;;21.00
22828;BMP180;11580;52.562;13.418;2023-07-31T04:10:33;100069.00;;;21.00
22828;BMP180;11580;52.562;13.418;2023-07-31T04:13:00;100065.00;;;21.00
22828;BMP180;11580;52.562;13.418;2023-07-31T04:15:28;100062.00;;;21.00
22828;BMP180;11580;52.562;13.418;2023-07-31T04:17:56;100059.00;;;21.00
22828;BMP180;11580;52.562;13.418;2023-07-31T04:20:23;100061.00;;;21.00
22828;BMP180;11580;52.562;13.418;2023-07-31T04:22:50;100062.00;;;21.00
22828;BMP180;11580;52.562;13.418;2023-07-31T04:25:18;100058.00;;;21.00
22828;BMP180;11580;52.562;13.418;2023-07-31T04:27:45;100023.00;;;21.00
22828;BMP180;11580;52.562;13.418;2023-07-31T04:30:12;100054.00;;;21.10
22828;BMP180;11580;52.562;13.418;2023-07-31T04:32:39;100049.00;;;21.10
22828;BMP180;11580;52.562;13.418;2023-07-31T04:35:08;100053.00;;;21.10
22828;BMP180;11580;52.562;13.418;2023-07-31T04:37:35;100057.00;;;21.10
22828;BMP180;11580;52.562;13.418;2023-07-31T04:40:03;100060.00;;;21.20
22828;BMP180;11580;52.562;13.418;2023-07-31T04:42:30;100053.00;;;21.20
22828;BMP180;11580;52.562;13.418;2023-07-31T04:44:57;100054.00;;;21.20
22828;BMP180;11580;52.562;13.418;2023-07-31T04:47:24;100054.00;;;21.30
22828;BMP180;11580;52.562;13.418;2023-07-31T04:49:51;100044.00;;;21.30
22828;BMP180;11580;52.562;13.418;2023-07-31T04:52:20;100046.00;;;21.30
22828;BMP180;11580;52.562;13.418;2023-07-31T04:54:47;100053.00;;;21.40
22828;BMP180;11580;52.562;13.418;2023-07-31T04:57:14;100052.00;;;21.40
22828;BMP180;11580;52.562;13.418;2023-07-31T04:59:42;100048.00;;;21.40
22828;BMP180;11580;52.562;13.418;2023-07-31T05:02:12;100042.00;;;21.40
22828;BMP180;11580;52.562;13.418;2023-07-31T05:04:39;100054.00;;;21.40
22828;BMP180;11580;52.562;13.418;2023-07-31T05:07:06;100048.00;;;21.40
22828;BMP180;11580;52.562;13.418;2023-07-31T05:09:34;100052.00;;;21.50
22828;BMP180;11580;52.562;13.418;2023-07-31T05:12:04;100049.00;;;21.50
22828;BMP180;11580;52.562;13.418;2023-07-31T05:14:31;100045.00;;;21.50
22828;BMP180;11580;52.562;13.418;2023-07-31T05:16:58;100047.00;;;21.60
22828;BMP180;11580;52.562;13.418;2023-07-31T05:19:26;100054.00;;;21.60
22828;BMP180;11580;52.562;13.418;2023-07-31T05:21:53;100047.00;;;21.70
22828;BMP180;11580;52.562;13.418;2023-07-31T05:24:20;100043.00;;;21.70
22828;BMP180;11580;52.562;13.418;2023-07-31T05:26:48;100042.00;;;21.80
22828;BMP180;11580;52.562;13.418;2023-07-31T05:29:16;100043.00;;;21.80
22828;BMP180;11580;52.562;13.418;2023-07-31T05:31:43;100015.00;;;21.90
22828;BMP180;11580;52.562;13.418;2023-07-31T05:34:10;100047.00;;;22.00
22828;BMP180;11580;52.562;13.418;2023-07-31T05:36:37;100036.00;;;22.10
22828;BMP180;11580;52.562;13.418;2023-07-31T05:39:05;100036.00;;;22.10
22828;BMP180;11580;52.562;13.418;2023-07-31T05:41:35;100041.00;;;22.20
22828;BMP180;11580;52.562;13.418;2023-07-31T05:44:04;100035.00;;;22.30
22828;BMP180;11580;52.562;13.418;2023-07-31T05:46:31;100036.00;;;22.40
22828;BMP180;11580;52.562;13.418;2023-07-31T05:48:58;100032.00;;;22.40
22828;BMP180;11580;52.562;13.418;2023-07-31T05:51:26;100027.00;;;22.50
22828;BMP180;11580;52.562;13.418;2023-07-31T05:53:54;100028.00;;;22.50
22828;BMP180;11580;52.562;13.418;2023-07-31T05:56:21;100030.00;;;22.50
22828;BMP180;11580;52.562;13.418;2023-07-31T05:58:48;100024.00;;;22.60
22828;BMP180;11580;52.562;13.418;2023-07-31T06:01:18;100027.00;;;22.60
22828;BMP180;11580;52.562;13.418;2023-07-31T06:03:47;100030.00;;;22.60
22828;BMP180;11580;52.562;13.418;2023-07-31T06:06:14;100034.00;;;22.60
22828;BMP180;11580;52.562;13.418;2023-07-31T06:08:41;100027.00;;;22.60
22828;BMP180;11580;52.562;13.418;2023-07-31T06:11:08;100035.00;;;22.60
22828;BMP180;11580;52.562;13.418;2023-07-31T06:13:35;100028.00;;;22.60
22828;BMP180;11580;52.562;13.418;2023-07-31T06:16:03;100030.00;;;22.70
22828;BMP180;11580;52.562;13.418;2023-07-31T06:18:32;100024.00;;;22.70
22828;BMP180;11580;52.562;13.418;2023-07-31T06:20:59;100032.00;;;22.70
22828;BMP180;11580;52.562;13.418;2023-07-31T06:23:27;100028.00;;;22.70
22828;BMP180;11580;52.562;13.418;2023-07-31T06:25:54;100025.00;;;22.80
22828;BMP180;11580;52.562;13.418;2023-07-31T06:28:21;100030.00;;;22.80
22828;BMP180;11580;52.562;13.418;2023-07-31T06:30:48;100029.00;;;22.90
22828;BMP180;11580;52.562;13.418;2023-07-31T06:33:15;100030.00;;;22.90
22828;BMP180;11580;52.562;13.418;2023-07-31T06:35:44;100024.00;;;22.90
22828;BMP180;11580;52.562;13.418;2023-07-31T06:38:11;100031.00;;;23.00
22828;BMP180;11580;52.562;13.418;2023-07-31T06:40:38;100031.00;;;23.00
22828;BMP180;11580;52.562;13.418;2023-07-31T06:43:06;100030.00;;;23.00
22828;BMP180;11580;52.562;13.418;2023-07-31T06:45:36;100027.00;;;23.10
22828;BMP180;11580;52.562;13.418;2023-07-31T06:48:04;100026.00;;;23.20
22828;BMP180;11580;52.562;13.418;2023-07-31T06:50:32;100022.00;;;23.30
22828;BMP180;11580;52.562;13.418;2023-07-31T06:53:01;100028.00;;;23.40
22828;BMP180;11580;52.562;13.418;2023-07-31T06:55:28;100024.00;;;23.50
22828;BMP180;11580;52.562;13.418;2023-07-31T06:57:56;100026.00;;;23.50
22828;BMP180;11580;52.562;13.418;2023-07-31T07:00:24;100015.00;;;23.60
22828;BMP180;11580;52.562;13.418;2023-07-31T07:02:51;100022.00;;;23.70
22828;BMP180;11580;52.562;13.418;2023-07-31T07:05:18;100022.00;;;23.70
22828;BMP180;11580;52.562;13.418;2023-07-31T07:07:45;100034.00;;;23.80
22828;BMP180;11580;52.562;13.418;2023-07-31T07:10:14;100021.00;;;23.80
22828;BMP180;11580;52.562;13.418;2023-07-31T07:12:41;100024.00;;;23.90
22828;BMP180;11580;52.562;13.418;2023-07-31T07:15:09;100022.00;;;23.90
22828;BMP180;11580;52.562;13.418;2023-07-31T07:17:36;100029.00;;;23.90
22828;BMP180;11580;52.562;13.418;2023-07-31T07:20:05;100027.00;;;23.80
22828;BMP180;11580;52.562;13.418;2023-07-31T07:22:32;100028.00;;;23.80
22828;BMP180;11580;52.562;13.418;2023-07-31T07:24:59;100029.00;;;23.80
22828;BMP180;11580;52.562;13.418;2023-07-31T07:27:28;100035.00;;;23.70
22828;BMP180;11580;52.562;13.418;2023-07-31T07:29:55;100031.00;;;23.70
22828;BMP180;11580;52.562;13.418;2023-07-31T07:32:22;100027.00;;;23.80
22828;BMP180;11580;52.562;13.418;2023-07-31T07:34:49;100021.00;;;23.90
22828;BMP180;11580;52.562;13.418;2023-07-31T07:37:16;100017.00;;;24.00
22828;BMP180;11580;52.562;13.418;2023-07-31T07:39:44;100022.00;;;24.10
22828;BMP180;11580;52.562;13.418;2023-07-31T07:42:11;100025.00;;;24.20
22828;BMP180;11580;52.562;13.418;2023-07-31T07:44:40;100019.00;;;24.30
22828;BMP180;11580;52.562;13.418;2023-07-31T07:47:07;100023.00;;;24.40
22828;BMP180;11580;52.562;13.418;2023-07-31T07:49:34;100014.00;;;24.60
22828;BMP180;11580;52.562;13.418;2023-07-31T07:52:03;100007.00;;;24.80
22828;BMP180;11580;52.562;13.418;2023-07-31T07:54:30;100011.00;;;24.90
22828;BMP180;11580;52.562;13.418;2023-07-31T07:56:58;100013.00;;;25.10
22828;BMP180;11580;52.562;13.418;2023-07-31T07:59:25;99962.00;;;25.10
22828;BMP180;11580;52.562;13.418;2023-07-31T08:01:53;100012.00;;;25.20
22828;BMP180;11580;52.562;13.418;2023-07-31T08:04:20;100020.00;;;25.20
22828;BMP180;11580;52.562;13.418;2023-07-31T08:06:48;100022.00;;;25.10
22828;BMP180;11580;52.562;13.418;2023-07-31T08:09:15;100021.00;;;25.10
22828;BMP180;11580;52.562;13.418;2023-07-31T08:11:42;100013.00;;;25.10
22828;BMP180;11580;52.562;13.418;2023-07-31T08:14:09;100005.00;;;25.00
22828;BMP180;11580;52.562;13.418;2023-07-31T08:16:36;100001.00;;;25.00
22828;BMP180;11580;52.562;13.418;2023-07-31T08:19:05;99998.00;;;24.90
22828;BMP180;11580;52.562;13.418;2023-07-31T08:21:32;99992.00;;;24.80
22828;BMP180;11580;52.562;13.418;2023-07-31T08:23:59;100005.00;;;24.80
22828;BMP180;11580;52.562;13.418;2023-07-31T08:26:26;100002.00;;;24.70
22828;BMP180;11580;52.562;13.418;2023-07-31T08:28:53;99996.00;;;24.60
22828;BMP180;11580;52.562;13.418;2023-07-31T08:31:21;99998.00;;;24.50
22828;BMP180;11580;52.562;13.418;2023-07-31T08:33:48;99993.00;;;24.50
22828;BMP180;11580;52.562;13.418;2023-07-31T08:36:16;99991.00;;;24.40
22828;BMP180;11580;52.562;13.418;2023-07-31T08:38:44;99995.00;;;24.30
22828;BMP180;11580;52.562;13.418;2023-07-31T08:41:12;99993.00;;;24.30
22828;BMP180;11580;52.562;13.418;2023-07-31T08:43:39;99990.00;;;24.20
22828;BMP180;11580;52.562;13.418;2023-07-31T08:46:07;99992.00;;;24.20
22828;BMP180;11580;52.562;13.418;2023-07-31T08:48:37;99995.00;;;24.30
22828;BMP180;11580;52.562;13.418;2023-07-31T08:51:04;100000.00;;;24.30
22828;BMP180;11580;52.562;13.418;2023-07-31T08:53:33;99994.00;;;24.40
22828;BMP180;11580;52.562;13.418;2023-07-31T08:56:00;99991.00;;;24.50
22828;BMP180;11580;52.562;13.418;2023-07-31T08:58:31;100001.00;;;24.70
22828;BMP180;11580;52.562;13.418;2023-07-31T09:01:03;99993.00;;;24.90
22828;BMP180;11580;52.562;13.418;2023-07-31T09:03:34;99997.00;;;25.10
22828;BMP180;11580;52.562;13.418;2023-07-31T09:06:03;100003.00;;;25.30
22828;BMP180;11580;52.562;13.418;2023-07-31T09:08:33;100000.00;;;25.30
22828;BMP180;11580;52.562;13.418;2023-07-31T09:11:02;100003.00;;;25.40
22828;BMP180;11580;52.562;13.418;2023-07-31T09:13:31;99998.00;;;25.40
22828;BMP180;11580;52.562;13.418;2023-07-31T09:15:59;100003.00;;;25.50
22828;BMP180;11580;52.562;13.418;2023-07-31T09:18:26;99997.00;;;25.50
22828;BMP180;11580;52.562;13.418;2023-07-31T09:21:04;99990.00;;;25.50
22828;BMP180;11580;52.562;13.418;2023-07-31T09:23:43;99987.00;;;25.50
22828;BMP180;11580;52.562;13.418;2023-07-31T09:26:11;99982.00;;;25.60
22828;BMP180;11580;52.562;13.418;2023-07-31T09:28:55;99987.00;;;25.60
22828;BMP180;11580;52.562;13.418;2023-07-31T09:31:33;99996.00;;;25.70
22828;BMP180;11580;52.562;13.418;2023-07-31T09:34:00;99998.00;;;25.70
22828;BMP180;11580;52.562;13.418;2023-07-31T09:36:30;99991.00;;;25.60
22828;BMP180;11580;52.562;13.418;2023-07-31T09:39:02;100001.00;;;25.60
22828;BMP180;11580;52.562;13.418;2023-07-31T09:41:30;99997.00;;;25.40
22828;BMP180;11580;52.562;13.418;2023-07-31T09:43:57;99996.00;;;25.30
22828;BMP180;11580;52.562;13.418;2023-07-31T09:46:27;99991.00;;;25.10
22828;BMP180;11580;52.562;13.418;2023-07-31T09:49:05;99990.00;;;24.90
22828;BMP180;11580;52.562;13.418;2023-07-31T09:51:32;99981.00;;;24.80
22828;BMP180;11580;52.562;13.418;2023-07-31T09:54:10;99987.00;;;24.70
22828;BMP180;11580;52.562;13.418;2023-07-31T09:56:43;99977.00;;;24.50
22828;BMP180;11580;52.562;13.418;2023-07-31T09:59:15;99977.00;;;24.60
22828;BMP180;11580;52.562;13.418;2023-07-31T10:01:45;99970.00;;;24.60
22828;BMP180;11580;52.562;13.418;2023-07-31T10:04:14;99979.00;;;24.50
22828;BMP180;11580;52.562;13.418;2023-07-31T10:06:43;99972.00;;;24.60
22828;BMP180;11580;52.562;13.418;2023-07-31T10:09:15;99975.00;;;24.60
22828;BMP180;11580;52.562;13.418;2023-07-31T10:11:50;99969.00;;;24.70
22828;BMP180;11580;52.562;13.418;2023-07-31T10:14:23;99966.00;;;24.90
22828;BMP180;11580;52.562;13.418;2023-07-31T10:16:52;99972.00;;;25.10
22828;BMP180;11580;52.562;13.418;2023-07-31T10:19:20;99970.00;;;25.30
22828;BMP180;11580;52.562;13.418;2023-07-31T10:21:49;99966.00;;;25.40
22828;BMP180;11580;52.562;13.418;2023-07-31T10:24:18;99966.00;;;25.50
22828;BMP180;11580;52.562;13.418;2023-07-31T10:26:48;99966.00;;;25.50
22828;BMP180;11580;52.562;13.418;2023-07-31T10:29:17;99968.00;;;25.40
22828;BMP180;11580;52.562;13.418;2023-07-31T10:31:47;99955.00;;;25.30
22828;BMP180;11580;52.562;13.418;2023-07-31T10:34:15;99976.00;;;25.30
22828;BMP180;11580;52.562;13.418;2023-07-31T10:36:42;99960.00;;;25.20
22828;BMP180;11580;52.562;13.418;2023-07-31T10:39:34;99960.00;;;25.20
22828;BMP180;11580;52.562;13.418;2023-07-31T10:42:11;99964.00;;;25.20
22828;BMP180;11580;52.562;13.418;2023-07-31T10:44:43;99959.00;;;25.10
22828;BMP180;11580;52.562;13.418;2023-07-31T10:47:14;99949.00;;;25.10
22828;BMP180;11580;52.562;13.418;2023-07-31T10:49:40;99951.00;;;25.10
22828;BMP180;11580;52.562;13.418;2023-07-31T10:52:13;99943.00;;;25.20
22828;BMP180;11580;52.562;13.418;2023-07-31T10:54:41;99940.00;;;25.30
22828;BMP180;11580;52.562;13.418;2023-07-31T10:57:20;99937.00;;;25.50
22828;BMP180;11580;52.562;13.418;2023-07-31T10:59:48;99939.00;;;25.70
22828;BMP180;11580;52.562;13.418;2023-07-31T11:02:26;99922.00;;;26.00
22828;BMP180;11580;52.562;13.418;2023-07-31T11:05:09;99912.00;;;26.30
22828;BMP180;11580;52.562;13.418;2023-07-31T11:07:49;99920.00;;;26.60
22828;BMP180;11580;52.562;13.418;2023-07-31T11:10:19;99926.00;;;26.90
22828;BMP180;11580;52.562;13.418;2023-07-31T11:12:46;99936.00;;;27.10
22828;BMP180;11580;52.562;13.418;2023-07-31T11:15:14;99935.00;;;27.30
22828;BMP180;11580;52.562;13.418;2023-07-31T11:17:41;99917.00;;;27.40
22828;BMP180;11580;52.562;13.418;2023-07-31T11:20:09;99920.00;;;27.50
22828;BMP180;11580;52.562;13.418;2023-07-31T11:22:36;99921.00;;;27.60
22828;BMP180;11580;52.562;13.418;2023-07-31T11:25:04;99920.00;;;27.60
22828;BMP180;11580;52.562;13.418;2023-07-31T11:27:39;99926.00;;;27.60
22828;BMP180;11580;52.562;13.418;2023-07-31T11:30:09;99917.00;;;27.60
22828;BMP180;11580;52.562;13.418;2023-07-31T11:32:37;99918.00;;;27.70
22828;BMP180;11580;52.562;13.418;2023-07-31T11:35:05;99915.00;;;27.70
22828;BMP180;11580;52.562;13.418;2023-07-31T11:37:40;99916.00;;;27.70
22828;BMP180;11580;52.562;13.418;2023-07-31T11:40:09;99912.00;;;27.70
22828;BMP180;11580;52.562;13.418;2023-07-31T11:42:38;99910.00;;;27.60
22828;BMP180;11580;52.562;13.418;2023-07-31T11:45:08;99925.00;;;27.50
22828;BMP180;11580;52.562;13.418;2023-07-31T11:47:37;99905.00;;;27.40
22828;BMP180;11580;52.562;13.418;2023-07-31T11:50:06;99909.00;;;27.30
22828;BMP180;11580;52.562;13.418;2023-07-31T11:52:37;99911.00;;;27.20
22828;BMP180;11580;52.562;13.418;2023-07-31T11:55:09;99910.00;;;27.10
22828;BMP180;11580;52.562;13.418;2023-07-31T11:57:41;99918.00;;;27.00
22828;BMP180;11580;52.562;13.418;2023-07-31T12:00:12;99918.00;;;27.00
22828;BMP180;11580;52.562;13.418;2023-07-31T12:02:40;99913.00;;;27.00
22828;BMP180;11580;52.562;13.418;2023-07-31T12:05:11;99912.00;;;26.90
22828;BMP180;11580;52.562;13.418;2023-07-31T12:07:47;99910.00;;;26.90
22828;BMP180;11580;52.562;13.418;2023-07-31T12:10:29;99895.00;;;26.90
22828;BMP180;11580;52.562;13.418;2023-07-31T12:13:03;99903.00;;;26.80
22828;BMP180;11580;52.562;13.418;2023-07-31T12:15:37;99899.00;;;26.70
22828;BMP180;11580;52.562;13.418;2023-07-31T12:18:07;99896.00;;;26.70
22828;BMP180;11580;52.562;13.418;2023-07-31T12:20:35;99900.00;;;26.60
22828;BMP180;11580;52.562;13.418;2023-07-31T12:23:02;99894.00;;;26.60
22828;BMP180;11580;52.562;13.418;2023-07-31T12:25:32;99890.00;;;26.70
22828;BMP180;11580;52.562;13.418;2023-07-31T12:28:06;99899.00;;;26.80
22828;BMP180;11580;52.562;13.418;2023-07-31T12:30:39;99893.00;;;26.90
22828;BMP180;11580;52.562;13.418;2023-07-31T12:33:13;99885.00;;;27.10
22828;BMP180;11580;52.562;13.418;2023-07-31T12:35:47;99888.00;;;27.20
22828;BMP180;11580;52.562;13.418;2023-07-31T12:38:14;99888.00;;;27.20
22828;BMP180;11580;52.562;13.418;2023-07-31T12:40:42;99874.00;;;27.20
22828;BMP180;11580;52.562;13.418;2023-07-31T12:43:11;99881.00;;;27.20
22828;BMP180;11580;52.562;13.418;2023-07-31T12:45:38;99874.00;;;27.20
22828;BMP180;11580;52.562;13.418;2023-07-31T12:48:05;99866.00;;;27.30
22828;BMP180;11580;52.562;13.418;2023-07-31T12:50:32;99866.00;;;27.40
22828;BMP180;11580;52.562;13.418;2023-07-31T12:53:02;99833.00;;;27.40
22828;BMP180;11580;52.562;13.418;2023-07-31T12:55:30;99867.00;;;27.40
22828;BMP180;11580;52.562;13.418;2023-07-31T12:57:57;99861.00;;;27.50
22828;BMP180;11580;52.562;13.418;2023-07-31T13:00:26;99862.00;;;27.50
22828;BMP180;11580;52.562;13.418;2023-07-31T13:02:53;99854.00;;;27.50
22828;BMP180;11580;52.562;13.418;2023-07-31T13:05:20;99841.00;;;27.40
22828;BMP180;11580;52.562;13.418;2023-07-31T13:07:48;99844.00;;;27.40
22828;BMP180;11580;52.562;13.418;2023-07-31T13:10:15;99843.00;;;27.40
22828;BMP180;11580;52.562;13.418;2023-07-31T13:12:42;99855.00;;;27.40
22828;BMP180;11580;52.562;13.418;2023-07-31T13:15:10;99867.00;;;27.30
22828;BMP180;11580;52.562;13.418;2023-07-31T13:17:39;99857.00;;;27.20
22828;BMP180;11580;52.562;13.418;2023-07-31T13:20:07;99854.00;;;27.10
22828;BMP180;11580;52.562;13.418;2023-07-31T13:22:35;99847.00;;;27.00
22828;BMP180;11580;52.562;13.418;2023-07-31T13:25:02;99851.00;;;27.10
22828;BMP180;11580;52.562;13.418;2023-07-31T13:27:30;99852.00;;;27.10
22828;BMP180;11580;52.562;13.418;2023-07-31T13:29:57;99851.00;;;27.30
22828;BMP180;11580;52.562;13.418;2023-07-31T13:32:24;99856.00;;;27.50
22828;BMP180;11580;52.562;13.418;2023-07-31T13:34:53;99840.00;;;27.60
22828;BMP180;11580;52.562;13.418;2023-07-31T13:37:20;99840.00;;;27.80
22828;BMP180;11580;52.562;13.418;2023-07-31T13:39:47;99840.00;;;27.90
22828;BMP180;11580;52.562;13.418;2023-07-31T13:42:14;99837.00;;;28.10
22828;BMP180;11580;52.562;13.418;2023-07-31T13:44:42;99834.00;;;28.20
22828;BMP180;11580;52.562;13.418;2023-07-31T13:47:10;99833.00;;;28.30
22828;BMP180;11580;52.562;13.418;2023-07-31T13:49:37;99826.00;;;28.40
22828;BMP180;11580;52.562;13.418;2023-07-31T13:52:06;99831.00;;;28.50
22828;BMP180;11580;52.562;13.418;2023-07-31T13:54:34;99826.00;;;28.60
22828;BMP180;11580;52.562;13.418;2023-07-31T13:57:01;99826.00;;;28.60